Time;durP1;ratioP1;P1;durP2;ratioP2;P2;SDS_P1;SDS_P2;PMS_P1;PMS_P2;Temp;Humidity;BMP_temperature;BMP_pressure;BME280_temperature;BME280_humidity;BME280_pressure;Samples;Min_cycle;Max_cycle;Signal;HPM_P1;HPM_P2
2021/12/19 00:09:14;;;;;;;12.30;7.20;;;;;;;-141.50;100.00;63355.56;4936961;29;20059;-85
2021/12/19 00:11:41;;;;;;;19.55;7.57;;;;;;;-141.50;100.00;63355.56;4938382;29;20497;-84
2021/12/19 00:14:07;;;;;;;14.32;7.60;;;;;;;-141.50;100.00;63355.56;4951796;29;20047;-85
2021/12/19 00:16:34;;;;;;;15.00;7.57;;;;;;;-141.50;100.00;63355.56;4951218;28;20642;-82
2021/12/19 00:19:01;;;;;;;14.90;7.65;;;;;;;-141.50;100.00;63355.56;4935504;29;20078;-86
2021/12/19 00:21:27;;;;;;;15.52;7.00;;;;;;;-141.50;100.00;63355.56;4935091;29;20062;-83
2021/12/19 00:23:55;;;;;;;16.83;7.10;;;;;;;-141.50;100.00;63355.56;4951395;28;20555;-85
2021/12/19 00:26:22;;;;;;;15.27;7.80;;;;;;;-141.50;100.00;63355.56;4936553;29;20093;-86
2021/12/19 00:28:49;;;;;;;16.15;7.97;;;;;;;-141.50;100.00;63355.56;4949877;28;20084;-85
2021/12/19 00:31:16;;;;;;;15.35;7.28;;;;;;;-141.50;100.00;63355.56;4949480;28;20115;-85
2021/12/19 00:33:43;;;;;;;14.75;7.45;;;;;;;-141.50;100.00;63355.56;4950845;28;20079;-85
2021/12/19 00:36:10;;;;;;;14.73;6.93;;;;;;;-141.50;100.00;63355.56;4948778;28;20048;-84
2021/12/19 00:38:36;;;;;;;15.48;7.47;;;;;;;-141.50;100.00;63355.56;4948654;28;20468;-84
2021/12/19 00:41:04;;;;;;;15.50;7.43;;;;;;;-141.50;100.00;63355.56;4931337;29;20062;-84
2021/12/19 00:44:08;;;;;;;19.27;7.47;;;;;;;-141.50;100.00;63355.56;4932525;29;20106;-84
2021/12/19 00:46:26;;;;;;;18.42;7.68;;;;;;;-141.50;100.00;63355.56;4933369;29;20056;-84
2021/12/19 00:48:55;;;;;;;18.52;8.13;;;;;;;-141.50;100.00;63355.56;4948809;28;20062;-85
2021/12/19 00:51:25;;;;;;;15.27;7.53;;;;;;;-141.50;100.00;63355.56;4933291;29;20063;-84
2021/12/19 00:53:53;;;;;;;16.80;7.72;;;;;;;-141.50;100.00;63355.56;4933629;29;20517;-84
2021/12/19 00:56:21;;;;;;;17.92;8.02;;;;;;;-141.50;100.00;63355.56;4933781;29;20055;-85
2021/12/19 00:58:49;;;;;;;16.65;7.45;;;;;;;-141.50;100.00;63355.56;4934514;29;20364;-85
2021/12/19 01:01:18;;;;;;;13.65;6.72;;;;;;;-141.50;100.00;63355.56;4947985;28;20138;-84
2021/12/19 01:03:47;;;;;;;14.85;6.95;;;;;;;-141.50;100.00;63355.56;4948743;29;20457;-85
2021/12/19 01:06:17;;;;;;;14.80;7.75;;;;;;;-141.50;100.00;63355.56;4948432;28;20061;-85
2021/12/19 01:08:45;;;;;;;18.55;6.97;;;;;;;-141.50;100.00;63355.56;4949647;29;20118;-83
2021/12/19 01:11:12;;;;;;;17.77;7.90;;;;;;;-141.50;100.00;63355.56;4949041;28;20119;-85
2021/12/19 01:13:38;;;;;;;18.50;7.40;;;;;;;-141.50;100.00;63355.56;4936036;29;20056;-83
2021/12/19 01:16:05;;;;;;;16.75;7.03;;;;;;;-141.50;100.00;63355.56;4933553;29;20890;-85
2021/12/19 01:18:32;;;;;;;17.48;7.25;;;;;;;-141.50;100.00;63355.56;4949973;29;20087;-84
2021/12/19 01:20:58;;;;;;;15.52;6.95;;;;;;;-141.50;100.00;63355.56;4934252;29;20560;-83
2021/12/19 01:23:25;;;;;;;16.92;7.38;;;;;;;-141.50;100.00;63355.56;4949450;28;20050;-81
2021/12/19 01:25:52;;;;;;;14.30;7.05;;;;;;;-141.50;100.00;63355.56;4935659;29;20051;-84
2021/12/19 01:28:19;;;;;;;16.38;7.43;;;;;;;-141.50;100.00;63355.56;4951235;28;20531;-86
2021/12/19 01:30:46;;;;;;;22.05;7.90;;;;;;;-141.50;100.00;63355.56;4935025;29;20146;-85
2021/12/19 01:33:12;;;;;;;17.83;7.75;;;;;;;-141.50;100.00;63355.56;4935381;28;20142;-86
2021/12/19 01:35:39;;;;;;;12.60;6.88;;;;;;;-141.50;100.00;63355.56;4951158;29;20055;-83
2021/12/19 01:38:06;;;;;;;14.65;7.05;;;;;;;-141.50;100.00;63355.56;4965987;28;20048;-83
2021/12/19 01:40:32;;;;;;;17.17;7.18;;;;;;;-141.50;100.00;63355.56;4946728;29;20090;-86
2021/12/19 01:43:00;;;;;;;15.57;7.28;;;;;;;-141.50;100.00;63355.56;4949601;28;20188;-85
2021/12/19 01:45:30;;;;;;;15.25;7.15;;;;;;;-141.50;100.00;63355.56;4953686;29;20058;-85
2021/12/19 01:47:58;;;;;;;14.35;6.93;;;;;;;-141.50;100.00;63355.56;4954464;29;20051;-85
2021/12/19 01:50:26;;;;;;;17.77;7.40;;;;;;;-141.50;100.00;63355.56;4953583;28;20059;-84
2021/12/19 01:52:53;;;;;;;18.30;7.80;;;;;;;-141.50;100.00;63355.56;4937168;29;20055;-84
2021/12/19 01:55:22;;;;;;;14.57;6.88;;;;;;;-141.50;100.00;63355.56;4936546;29;20285;-85
2021/12/19 01:57:49;;;;;;;15.60;7.15;;;;;;;-141.50;100.00;63355.56;4938096;29;20083;-85
2021/12/19 02:00:26;;;;;;;17.77;7.43;;;;;;;-141.50;100.00;63355.56;4944671;29;20063;-83
2021/12/19 02:02:54;;;;;;;24.92;7.63;;;;;;;-141.50;100.00;63355.56;4949614;29;20297;-82
2021/12/19 02:05:22;;;;;;;18.48;7.63;;;;;;;-141.50;100.00;63355.56;4936750;29;20051;-82
2021/12/19 02:07:50;;;;;;;20.60;7.45;;;;;;;-141.50;100.00;63355.56;4971004;28;20055;-82
2021/12/19 02:10:22;;;;;;;16.17;7.20;;;;;;;-141.50;100.00;63355.56;4961439;28;20055;-84
2021/12/19 02:12:50;;;;;;;17.75;7.88;;;;;;;-141.50;100.00;63355.56;4960229;28;20059;-83
2021/12/19 02:15:20;;;;;;;25.35;8.68;;;;;;;-141.50;100.00;63355.56;4963319;28;20047;-83
2021/12/19 02:17:50;;;;;;;17.75;7.68;;;;;;;-141.50;100.00;63355.56;4966188;28;20051;-85
2021/12/19 02:20:18;;;;;;;15.18;7.07;;;;;;;-141.50;100.00;63355.56;4967619;28;20055;-84
2021/12/19 02:22:45;;;;;;;24.10;8.02;;;;;;;-141.50;100.00;63355.56;4959120;28;20051;-83
2021/12/19 02:25:14;;;;;;;21.27;8.00;;;;;;;-141.50;100.00;63355.56;4957781;28;20079;-83
2021/12/19 02:27:41;;;;;;;16.10;6.95;;;;;;;-141.50;100.00;63355.56;4957955;28;20106;-83
2021/12/19 02:30:09;;;;;;;19.10;7.97;;;;;;;-141.50;100.00;63355.56;4957403;28;20047;-84
2021/12/19 02:32:38;;;;;;;19.42;7.43;;;;;;;-141.50;100.00;63355.56;4958361;28;20114;-82
2021/12/19 02:35:09;;;;;;;18.30;8.25;;;;;;;-141.50;100.00;63355.56;4958140;28;20073;-83
2021/12/19 02:48:29;;;;;;;18.23;7.57;;;;;;;-141.50;100.00;63355.56;4957580;28;20476;-86
2021/12/19 02:50:57;;;;;;;16.20;8.05;;;;;;;-141.50;100.00;63355.56;4956355;28;20062;-85
2021/12/19 02:53:39;;;;;;;17.30;7.05;;;;;;;-141.50;100.00;63355.56;4957508;28;20087;-85
2021/12/19 02:56:09;;;;;;;21.70;7.95;;;;;;;-141.50;100.00;63355.56;4955636;29;20102;-84
2021/12/19 02:58:38;;;;;;;18.30;7.78;;;;;;;-141.50;100.00;63355.56;4955566;28;20106;-82
2021/12/19 03:01:08;;;;;;;14.38;7.43;;;;;;;-141.50;100.00;63355.56;4956141;28;20054;-83
2021/12/19 03:03:34;;;;;;;17.77;7.88;;;;;;;-141.50;100.00;63355.56;4954667;29;20447;-84
2021/12/19 03:06:02;;;;;;;16.65;7.53;;;;;;;-141.50;100.00;63355.56;4955599;28;20051;-83
2021/12/19 03:08:30;;;;;;;17.25;7.53;;;;;;;-141.50;100.00;63355.56;4953750;28;20051;-82
2021/12/19 03:19:14;;;;;;;17.83;7.35;;;;;;;-141.50;100.00;63355.56;4954920;28;20055;-84
2021/12/19 03:21:41;;;;;;;17.42;7.20;;;;;;;-141.50;100.00;63355.56;4954041;28;20055;-82
2021/12/19 03:24:08;;;;;;;18.63;7.55;;;;;;;-141.50;100.00;63355.56;4954250;28;20110;-84
2021/12/19 03:26:34;;;;;;;20.20;7.53;;;;;;;-141.50;100.00;63355.56;4956211;28;20129;-84
2021/12/19 03:29:02;;;;;;;15.00;8.10;;;;;;;-141.50;100.00;63355.56;4954718;28;20523;-83
2021/12/19 03:31:30;;;;;;;21.38;8.27;;;;;;;-141.50;100.00;63355.56;4951947;28;20051;-81
2021/12/19 03:33:56;;;;;;;18.88;8.13;;;;;;;-141.50;100.00;63355.56;4970249;28;20051;-86
2021/12/19 03:36:24;;;;;;;17.98;7.95;;;;;;;-141.50;100.00;63355.56;4953220;28;20051;-82
2021/12/19 03:38:57;;;;;;;16.50;7.65;;;;;;;-141.50;100.00;63355.56;4953944;28;20085;-85
2021/12/19 03:41:33;;;;;;;14.85;7.43;;;;;;;-141.50;100.00;63355.56;4953357;28;20051;-82
2021/12/19 03:44:04;;;;;;;16.13;7.60;;;;;;;-141.50;100.00;63355.56;4956133;28;20046;-85
2021/12/19 03:46:32;;;;;;;14.85;6.80;;;;;;;-141.50;100.00;63355.56;4955856;28;20098;-83
2021/12/19 03:48:58;;;;;;;16.30;7.45;;;;;;;-141.50;100.00;63355.56;4954990;28;20051;-82
2021/12/19 03:51:25;;;;;;;16.52;7.13;;;;;;;-141.50;100.00;63355.56;4952514;28;20090;-82
2021/12/19 03:53:52;;;;;;;15.93;7.20;;;;;;;-141.50;100.00;63355.56;4955072;28;20555;-83
2021/12/19 03:56:18;;;;;;;15.55;7.07;;;;;;;-141.50;100.00;63355.56;4953815;28;20051;-84
2021/12/19 03:58:45;;;;;;;17.45;6.75;;;;;;;-141.50;100.00;63355.56;4953019;28;20106;-82
2021/12/19 04:01:12;;;;;;;15.65;7.07;;;;;;;-141.50;100.00;63355.56;4955098;28;20127;-82
2021/12/19 04:03:40;;;;;;;14.55;7.03;;;;;;;-141.50;100.00;63355.56;4954985;28;20100;-82
2021/12/19 04:06:06;;;;;;;20.27;7.05;;;;;;;-141.50;100.00;63355.56;4954484;28;20055;-83
2021/12/19 04:08:33;;;;;;;16.08;7.03;;;;;;;-141.50;100.00;63355.56;4956025;28;20562;-83
2021/12/19 04:10:59;;;;;;;22.13;7.68;;;;;;;-141.50;100.00;63355.56;4952289;28;20093;-82
2021/12/19 04:13:26;;;;;;;17.33;7.50;;;;;;;-141.50;100.00;63355.56;4953946;28;20086;-83
2021/12/19 04:15:52;;;;;;;16.02;7.40;;;;;;;-141.50;100.00;63355.56;4957744;28;20082;-80
2021/12/19 04:18:20;;;;;;;15.70;8.18;;;;;;;-141.50;100.00;63355.56;4970610;29;20048;-83
2021/12/19 04:20:47;;;;;;;12.98;6.85;;;;;;;-141.50;100.00;63355.56;4969174;28;20047;-82
2021/12/19 04:23:14;;;;;;;16.50;7.70;;;;;;;-141.50;100.00;63355.56;4961855;28;20051;-83
2021/12/19 04:25:40;;;;;;;17.52;7.72;;;;;;;-141.50;100.00;63355.56;4956133;28;20102;-83
2021/12/19 04:28:07;;;;;;;16.10;8.65;;;;;;;-141.50;100.00;63355.56;4954585;28;20047;-81
2021/12/19 04:30:34;;;;;;;16.75;8.00;;;;;;;-141.50;100.00;63355.56;4954893;28;20089;-83
2021/12/19 04:33:04;;;;;;;;;;;;;;;;;;;;;
2021/12/19 04:35:32;;;;;;;21.85;8.40;;;;;;;-141.50;100.00;63355.56;4959143;28;20093;-82
2021/12/19 04:41:05;;;;;;;19.73;8.43;;;;;;;-141.50;100.00;63355.56;4956111;28;20457;-82
2021/12/19 04:52:24;;;;;;;17.75;8.77;;;;;;;-141.50;100.00;63355.56;4939548;29;20102;-82
2021/12/19 05:00:10;;;;;;;19.25;9.00;;;;;;;-141.50;100.00;63355.56;4937033;29;20051;-84
2021/12/19 05:03:01;;;;;;;22.00;9.32;;;;;;;-141.50;100.00;63355.56;4937181;29;20099;-81
2021/12/19 05:05:47;;;;;;;24.83;8.80;;;;;;;-141.50;100.00;63355.56;4953538;29;20075;-82
2021/12/19 05:16:30;;;;;;;16.60;8.40;;;;;;;-141.50;100.00;63355.56;4941893;28;20048;-81
2021/12/19 05:19:04;;;;;;;21.02;8.90;;;;;;;-141.50;100.00;63355.56;4947216;28;20079;-79
2021/12/19 05:21:30;;;;;;;21.33;9.48;;;;;;;-141.50;100.00;63355.56;4944240;29;20060;-82
2021/12/19 05:26:25;;;;;;;21.60;9.25;;;;;;;-141.50;100.00;63355.56;4937235;29;20048;-81
2021/12/19 05:28:52;;;;;;;19.45;9.05;;;;;;;-141.50;100.00;63355.56;4944561;29;20048;-82
2021/12/19 05:31:20;;;;;;;19.33;9.50;;;;;;;-141.50;100.00;63355.56;4943313;29;20051;-83
2021/12/19 05:33:47;;;;;;;21.10;9.60;;;;;;;-141.50;100.00;63355.56;4945116;29;20067;-83
2021/12/19 05:46:56;;;;;;;20.35;8.98;;;;;;;-141.50;100.00;63355.56;4946921;29;20044;-81
2021/12/19 05:49:23;;;;;;;19.85;9.25;;;;;;;-141.50;100.00;63355.56;4946979;29;20056;-81
2021/12/19 05:51:50;;;;;;;25.00;9.75;;;;;;;-141.50;100.00;63355.56;4946357;29;20055;-82
2021/12/19 05:54:17;;;;;;;21.15;9.80;;;;;;;-141.50;100.00;63355.56;4948298;29;20080;-82
2021/12/19 05:56:45;;;;;;;24.23;9.85;;;;;;;-141.50;100.00;63355.56;4949869;29;20221;-80
2021/12/19 05:59:13;;;;;;;22.95;10.48;;;;;;;-141.50;100.00;63355.56;4947833;29;20055;-81
2021/12/19 06:01:39;;;;;;;23.23;9.98;;;;;;;-141.50;100.00;63355.56;4948145;29;20114;-82
2021/12/19 06:04:06;;;;;;;22.33;10.13;;;;;;;-141.50;100.00;63355.56;4947788;29;20083;-81
2021/12/19 06:06:33;;;;;;;23.63;10.38;;;;;;;-141.50;100.00;63355.56;4946017;29;20066;-84
2021/12/19 06:08:59;;;;;;;22.75;10.25;;;;;;;-141.50;100.00;63355.56;4944998;29;20079;-82
2021/12/19 06:11:26;;;;;;;20.30;9.88;;;;;;;-141.50;100.00;63355.56;4947535;29;20052;-82
2021/12/19 06:13:53;;;;;;;22.65;9.63;;;;;;;-141.50;100.00;63355.56;4952020;28;20047;-82
2021/12/19 06:16:19;;;;;;;22.15;11.05;;;;;;;-141.50;100.00;63355.56;4948120;29;20115;-84
2021/12/19 06:18:47;;;;;;;24.45;10.65;;;;;;;-141.50;100.00;63355.56;4948672;29;20056;-82
2021/12/19 06:21:13;;;;;;;22.73;10.25;;;;;;;-141.50;100.00;63355.56;4949543;29;20062;-83
2021/12/19 06:23:40;;;;;;;22.27;10.60;;;;;;;-141.50;100.00;63355.56;4951178;29;20056;-82
2021/12/19 06:26:10;;;;;;;24.05;10.80;;;;;;;-141.50;100.00;63355.56;4952882;29;20079;-79
2021/12/19 06:28:37;;;;;;;23.75;10.88;;;;;;;-141.50;100.00;63355.56;4957454;29;20066;-81
2021/12/19 06:31:04;;;;;;;22.63;11.90;;;;;;;-141.50;100.00;63355.56;4958961;28;20092;-81
2021/12/19 06:33:31;;;;;;;24.08;12.30;;;;;;;-141.50;100.00;63355.56;4957911;28;20138;-81
2021/12/19 06:35:57;;;;;;;23.38;11.32;;;;;;;-141.50;100.00;63355.56;4934427;29;20073;-81
2021/12/19 06:38:24;;;;;;;25.73;11.63;;;;;;;-141.50;100.00;63355.56;4934280;29;20052;-81
2021/12/19 06:40:51;;;;;;;24.23;11.13;;;;;;;-141.50;100.00;63355.56;4933055;29;20048;-82
2021/12/19 06:43:17;;;;;;;22.02;11.75;;;;;;;-141.50;100.00;63355.56;4929986;29;20048;-82
2021/12/19 06:45:44;;;;;;;26.52;12.35;;;;;;;-141.50;100.00;63355.56;4927829;29;20215;-83
2021/12/19 06:48:10;;;;;;;26.63;12.27;;;;;;;-141.50;100.00;63355.56;4929517;29;20055;-83
2021/12/19 06:50:37;;;;;;;26.45;12.93;;;;;;;-141.50;100.00;63355.56;4931161;29;20076;-82
2021/12/19 06:53:03;;;;;;;30.70;13.15;;;;;;;-141.50;100.00;63355.56;4930612;29;20056;-83
2021/12/19 06:55:30;;;;;;;28.45;12.88;;;;;;;-141.50;100.00;63355.56;4931477;29;20052;-83
2021/12/19 06:57:57;;;;;;;26.27;12.88;;;;;;;-141.50;100.00;63355.56;4930472;29;20056;-83
2021/12/19 07:00:25;;;;;;;26.38;13.25;;;;;;;-141.50;100.00;63355.56;4930936;29;20051;-81
2021/12/19 07:02:54;;;;;;;30.33;14.23;;;;;;;-141.50;100.00;63355.56;4930913;29;20056;-81
2021/12/19 07:05:21;;;;;;;30.55;13.25;;;;;;;-141.50;100.00;63355.56;4931675;29;20055;-83
2021/12/19 07:07:48;;;;;;;31.02;14.73;;;;;;;-141.50;100.00;63355.56;4931889;29;20108;-83
2021/12/19 07:10:14;;;;;;;27.92;13.82;;;;;;;-141.50;100.00;63355.56;4944949;29;20055;-83
2021/12/19 07:12:41;;;;;;;32.70;14.20;;;;;;;-141.50;100.00;63355.56;4930239;29;20597;-81
2021/12/19 07:15:09;;;;;;;32.17;14.38;;;;;;;-141.50;100.00;63355.56;4920930;29;20568;-82
2021/12/19 07:17:35;;;;;;;30.35;14.63;;;;;;;-141.50;100.00;63355.56;4939999;29;20056;-82
2021/12/19 07:20:05;;;;;;;29.92;14.77;;;;;;;-141.50;100.00;63355.56;4936919;29;20564;-81
2021/12/19 07:22:32;;;;;;;29.65;15.13;;;;;;;-141.50;100.00;63355.56;4950751;29;20083;-83
2021/12/19 07:24:58;;;;;;;31.20;14.93;;;;;;;-141.50;100.00;63355.56;4935415;29;20547;-83
2021/12/19 07:27:25;;;;;;;29.67;14.63;;;;;;;-141.50;100.00;63355.56;4937699;29;20058;-81
2021/12/19 07:29:55;;;;;;;32.03;15.90;;;;;;;-141.50;100.00;63355.56;4939691;29;20060;-83
2021/12/19 07:32:22;;;;;;;26.45;14.30;;;;;;;-141.50;100.00;63355.56;4937510;29;20052;-81
2021/12/19 07:35:10;;;;;;;30.95;15.20;;;;;;;-141.50;100.00;63355.56;4932989;29;20139;-82
2021/12/19 07:37:37;;;;;;;32.83;15.38;;;;;;;-141.50;100.00;63355.56;4938452;28;20052;-81
2021/12/19 07:40:17;;;;;;;31.45;15.30;;;;;;;-141.50;100.00;63355.56;4937568;29;20106;-81
2021/12/19 07:42:44;;;;;;;35.67;15.93;;;;;;;-141.50;100.00;63355.56;4950610;28;20665;-82
2021/12/19 07:45:13;;;;;;;31.63;15.40;;;;;;;-141.50;100.00;63355.56;4932606;29;20130;-81
2021/12/19 07:47:40;;;;;;;32.78;15.38;;;;;;;-141.50;100.00;63355.56;4939821;29;20052;-81
2021/12/19 07:50:08;;;;;;;30.85;15.88;;;;;;;-141.50;100.00;63355.56;4953560;28;20055;-82
2021/12/19 07:52:35;;;;;;;31.75;16.02;;;;;;;-141.50;100.00;63355.56;4921520;29;20059;-81
2021/12/19 07:55:03;;;;;;;31.40;15.30;;;;;;;-141.50;100.00;63355.56;4938602;29;20519;-82
2021/12/19 07:57:30;;;;;;;33.97;15.90;;;;;;;-141.50;100.00;63355.56;4942854;29;20063;-81
2021/12/19 07:59:56;;;;;;;31.88;15.73;;;;;;;-141.50;100.00;63355.56;4945520;29;20082;-84
2021/12/19 08:02:23;;;;;;;29.02;15.32;;;;;;;-141.50;100.00;63355.56;4947288;28;20039;-83
2021/12/19 08:04:49;;;;;;;30.13;15.50;;;;;;;-141.50;100.00;63355.56;4933126;29;20560;-81
2021/12/19 08:07:17;;;;;;;30.48;15.68;;;;;;;-141.50;100.00;63355.56;4938858;29;20062;-83
2021/12/19 08:09:59;;;;;;;29.65;14.13;;;;;;;-141.50;100.00;63355.56;4939934;29;20052;-83
2021/12/19 08:12:27;;;;;;;30.08;15.02;;;;;;;-141.50;100.00;63355.56;4941226;29;20063;-83
2021/12/19 08:14:54;;;;;;;34.83;15.07;;;;;;;-141.50;100.00;63355.56;4939956;29;20113;-83
2021/12/19 08:17:23;;;;;;;29.63;14.93;;;;;;;-141.50;100.00;63355.56;4941282;29;20126;-83
2021/12/19 08:19:50;;;;;;;30.38;15.35;;;;;;;-141.50;100.00;63355.56;4951832;29;20488;-82
2021/12/19 08:22:16;;;;;;;29.15;15.02;;;;;;;-141.50;100.00;63355.56;4947480;29;20086;-82
2021/12/19 08:24:45;;;;;;;30.88;14.20;;;;;;;-141.50;100.00;63355.56;4943524;28;20457;-81
2021/12/19 08:27:13;;;;;;;30.88;15.32;;;;;;;-141.50;100.00;63355.56;4935668;29;20047;-80
2021/12/19 08:29:39;;;;;;;32.00;14.95;;;;;;;-141.50;100.00;63355.56;4937094;29;20082;-81
2021/12/19 08:32:07;;;;;;;30.42;14.32;;;;;;;-141.50;100.00;63355.56;4937170;29;20075;-81
2021/12/19 08:34:34;;;;;;;27.10;13.63;;;;;;;-141.50;100.00;63355.56;4948232;28;20060;-81
2021/12/19 08:37:02;;;;;;;26.23;13.63;;;;;;;-141.50;100.00;63355.56;4936533;29;20603;-82
2021/12/19 08:39:31;;;;;;;27.50;13.20;;;;;;;-141.50;100.00;63355.56;4936696;29;20083;-81
2021/12/19 08:41:58;;;;;;;27.60;13.00;;;;;;;-141.50;100.00;63355.56;4936970;29;20132;-79
2021/12/19 08:44:25;;;;;;;30.30;14.13;;;;;;;-141.50;100.00;63355.56;4940488;29;20048;-79
2021/12/19 08:46:51;;;;;;;27.13;13.80;;;;;;;-141.50;100.00;63355.56;4933907;29;20079;-79
2021/12/19 08:49:18;;;;;;;25.42;13.57;;;;;;;-141.50;100.00;63355.56;4934067;29;20114;-80
2021/12/19 08:51:46;;;;;;;27.42;13.75;;;;;;;-141.50;100.00;63355.56;4939052;29;20055;-80
2021/12/19 08:54:12;;;;;;;25.20;13.55;;;;;;;-141.50;100.00;63355.56;4937632;29;20103;-81
2021/12/19 08:56:39;;;;;;;29.88;13.80;;;;;;;-141.50;100.00;63355.56;4937812;29;20054;-83
2021/12/19 08:59:06;;;;;;;24.45;13.38;;;;;;;-141.50;100.00;63355.56;4938068;28;20063;-82
2021/12/19 09:01:32;;;;;;;28.48;14.05;;;;;;;-141.50;100.00;63355.56;4943487;29;20111;-81
2021/12/19 09:04:00;;;;;;;24.45;13.55;;;;;;;-141.50;100.00;63355.56;4954931;28;20150;-83
2021/12/19 09:06:28;;;;;;;25.90;13.85;;;;;;;-141.50;100.00;63355.56;4952304;29;20054;-82
2021/12/19 09:08:54;;;;;;;26.92;13.23;;;;;;;-141.50;100.00;63355.56;4955356;29;20055;-82
2021/12/19 09:11:21;;;;;;;25.80;12.65;;;;;;;-141.50;100.00;63355.56;4939041;29;20043;-82
2021/12/19 09:13:48;;;;;;;27.17;13.38;;;;;;;-141.50;100.00;63355.56;4937764;29;20079;-81
2021/12/19 09:16:15;;;;;;;26.60;13.52;;;;;;;-141.50;100.00;63355.56;4936701;29;20102;-82
2021/12/19 09:19:02;;;;;;;29.90;13.35;;;;;;;-141.50;100.00;63355.56;4943088;29;20040;-81
2021/12/19 09:21:28;;;;;;;31.17;14.23;;;;;;;-141.50;100.00;63355.56;4944525;29;20086;-81
2021/12/19 09:23:55;;;;;;;30.45;13.80;;;;;;;-141.50;100.00;63355.56;4938852;29;20047;-81
2021/12/19 09:26:22;;;;;;;27.73;13.18;;;;;;;-141.50;100.00;63355.56;4943972;29;20047;-81
2021/12/19 09:28:48;;;;;;;27.52;13.43;;;;;;;-141.50;100.00;63355.56;4939632;29;20052;-80
2021/12/19 09:31:15;;;;;;;24.75;12.52;;;;;;;-141.50;100.00;63355.56;4936470;29;20059;-81
2021/12/19 09:33:41;;;;;;;25.38;11.82;;;;;;;-141.50;100.00;63355.56;4934870;29;20106;-82
2021/12/19 09:36:08;;;;;;;23.87;12.83;;;;;;;-141.50;100.00;63355.56;4934257;29;20573;-82
2021/12/19 09:38:35;;;;;;;25.98;12.18;;;;;;;-141.50;100.00;63355.56;4933861;29;20324;-80
2021/12/19 09:41:12;;;;;;;24.35;11.45;;;;;;;-141.50;100.00;63355.56;4934626;29;20059;-82
2021/12/19 09:43:43;;;;;;;24.05;12.38;;;;;;;-141.50;100.00;63355.56;4948981;29;20460;-82
2021/12/19 09:46:13;;;;;;;23.10;11.80;;;;;;;-141.50;100.00;63355.56;4949130;28;20079;-81
2021/12/19 09:48:42;;;;;;;24.00;12.73;;;;;;;-141.50;100.00;63355.56;4949534;29;20063;-83
2021/12/19 09:51:11;;;;;;;23.13;12.48;;;;;;;-141.50;100.00;63355.56;4966243;29;20073;-82
2021/12/19 09:53:39;;;;;;;25.55;12.82;;;;;;;-141.50;100.00;63355.56;4952237;29;20039;-80
2021/12/19 09:56:06;;;;;;;22.85;12.25;;;;;;;-141.50;100.00;63355.56;4940798;29;20052;-83
2021/12/19 09:58:34;;;;;;;24.20;12.07;;;;;;;-141.50;100.00;63355.56;4940625;29;20095;-82
2021/12/19 10:01:06;;;;;;;24.85;12.30;;;;;;;-141.50;100.00;63355.56;4939686;29;20056;-82
2021/12/19 10:03:35;;;;;;;26.83;13.65;;;;;;;-141.50;100.00;63355.56;4940577;29;20056;-81
2021/12/19 10:06:22;;;;;;;27.80;12.45;;;;;;;-141.50;100.00;63355.56;4940414;29;20048;-82
2021/12/19 10:09:07;;;;;;;22.35;11.85;;;;;;;-141.50;100.00;63355.56;4948426;29;20043;-82
2021/12/19 10:14:36;;;;;;;24.38;11.30;;;;;;;-141.50;100.00;63355.56;4950938;29;20058;-82
2021/12/19 10:17:15;;;;;;;25.60;11.70;;;;;;;-141.50;100.00;63355.56;4967410;29;20048;-80
2021/12/19 10:19:45;;;;;;;23.20;11.35;;;;;;;-141.50;100.00;63355.56;4940737;29;20052;-83
2021/12/19 10:22:47;;;;;;;23.08;11.75;;;;;;;-141.50;100.00;63355.56;4944796;29;20047;-82
2021/12/19 10:25:30;;;;;;;21.95;10.38;;;;;;;-141.50;100.00;63355.56;4933728;29;20118;-83
2021/12/19 10:28:08;;;;;;;21.55;11.00;;;;;;;-141.50;100.00;63355.56;4956622;29;20099;-82
2021/12/19 10:30:46;;;;;;;19.70;9.73;;;;;;;-141.50;100.00;63355.56;4951801;29;20055;-84
2021/12/19 10:33:14;;;;;;;25.75;10.18;;;;;;;-141.50;100.00;63355.56;4947201;28;20047;-83
2021/12/19 10:35:46;;;;;;;19.85;9.95;;;;;;;-141.50;100.00;63355.56;4940245;29;20055;-81
2021/12/19 10:38:26;;;;;;;17.00;9.23;;;;;;;-141.50;100.00;63355.56;4939983;29;20070;-82
2021/12/19 10:41:17;;;;;;;21.92;9.68;;;;;;;-141.50;100.00;63355.56;4938865;29;20086;-83
2021/12/19 10:44:02;;;;;;;17.85;9.45;;;;;;;-141.50;100.00;63355.56;4954431;28;20079;-83
2021/12/19 10:46:37;;;;;;;20.48;9.00;;;;;;;-141.50;100.00;63355.56;4939266;29;20055;-82
2021/12/19 10:49:05;;;;;;;21.48;9.82;;;;;;;-141.50;100.00;63355.56;4938829;29;20465;-83
2021/12/19 10:51:39;;;;;;;17.75;8.93;;;;;;;-141.50;100.00;63355.56;4941213;29;20082;-84
2021/12/19 10:54:07;;;;;;;18.80;9.60;;;;;;;-141.50;100.00;63355.56;4957354;29;20055;-84
2021/12/19 10:56:36;;;;;;;17.20;8.80;;;;;;;-141.50;100.00;63355.56;4941055;29;20067;-85
2021/12/19 10:59:07;;;;;;;17.58;8.55;;;;;;;-141.50;100.00;63355.56;4958257;28;20098;-83
2021/12/19 11:01:37;;;;;;;14.85;8.70;;;;;;;-141.50;100.00;63355.56;4943196;29;20259;-82
2021/12/19 11:04:08;;;;;;;15.88;8.95;;;;;;;-141.50;100.00;63355.56;4954671;28;20047;-83
2021/12/19 11:06:46;;;;;;;16.08;8.90;;;;;;;-141.50;100.00;63355.56;4938529;29;20052;-84
2021/12/19 11:09:14;;;;;;;16.45;7.97;;;;;;;-141.50;100.00;63355.56;4938780;29;20203;-84
2021/12/19 11:11:47;;;;;;;13.40;7.57;;;;;;;-141.50;100.00;63355.56;4938294;29;20090;-85
2021/12/19 11:14:18;;;;;;;14.35;7.63;;;;;;;-141.50;100.00;63355.56;4946123;29;20075;-86
2021/12/19 11:16:46;;;;;;;12.75;7.35;;;;;;;-141.50;100.00;63355.56;4938593;29;20067;-83
2021/12/19 11:19:12;;;;;;;15.65;7.38;;;;;;;-141.50;100.00;63355.56;4942179;29;20051;-83
2021/12/19 11:21:39;;;;;;;13.18;6.82;;;;;;;-141.50;100.00;63355.56;4959879;28;20401;-83
2021/12/19 11:24:09;;;;;;;12.18;6.65;;;;;;;-141.50;100.00;63355.56;4939207;29;20493;-83
2021/12/19 11:26:38;;;;;;;15.27;7.45;;;;;;;-141.50;100.00;63355.56;4936704;29;20106;-82
2021/12/19 11:29:06;;;;;;;13.13;7.35;;;;;;;-141.50;100.00;63355.56;4951829;28;20599;-82
2021/12/19 11:31:33;;;;;;;12.38;6.90;;;;;;;-141.50;100.00;63355.56;4934795;29;20052;-85
2021/12/19 11:34:21;;;;;;;12.32;6.65;;;;;;;-141.50;100.00;63355.56;4940509;29;20079;-85
2021/12/19 11:37:10;;;;;;;14.50;6.40;;;;;;;-141.50;100.00;63355.56;4953482;29;20056;-83
2021/12/19 11:39:41;;;;;;;10.82;6.50;;;;;;;-141.50;100.00;63355.56;4941426;29;20051;-81
2021/12/19 11:42:11;;;;;;;11.93;6.40;;;;;;;-141.50;100.00;63355.56;4939365;29;20059;-81
2021/12/19 11:45:31;;;;;;;15.63;6.05;;;;;;;-141.50;100.00;63355.56;4937861;29;20146;-83
2021/12/19 11:47:48;;;;;;;13.35;6.18;;;;;;;-141.50;100.00;63355.56;4938411;29;20083;-82
2021/12/19 11:50:22;;;;;;;11.65;5.82;;;;;;;-141.50;100.00;63355.56;4928027;29;20057;-83
2021/12/19 11:52:51;;;;;;;13.80;6.28;;;;;;;-141.50;100.00;63355.56;4928381;29;20497;-83
2021/12/19 11:55:19;;;;;;;13.63;6.05;;;;;;;-141.50;100.00;63355.56;4941489;29;20568;-83
2021/12/19 11:58:05;;;;;;;11.07;6.30;;;;;;;-141.50;100.00;63355.56;4928214;29;20143;-84
2021/12/19 12:00:34;;;;;;;13.30;6.72;;;;;;;-141.50;100.00;63355.56;4920199;29;20483;-82
2021/12/19 12:03:13;;;;;;;10.00;5.82;;;;;;;-141.50;100.00;63355.56;4939151;29;20148;-80
2021/12/19 12:05:47;;;;;;;10.25;5.93;;;;;;;-141.50;100.00;63355.56;4928639;29;20138;-83
2021/12/19 12:08:22;;;;;;;11.17;5.90;;;;;;;-141.50;100.00;63355.56;4934730;29;20084;-82
2021/12/19 12:10:53;;;;;;;9.25;5.57;;;;;;;-141.50;100.00;63355.56;4917591;29;20052;-83
2021/12/19 12:13:21;;;;;;;10.40;5.88;;;;;;;-141.50;100.00;63355.56;4919327;29;20056;-83
2021/12/19 12:15:50;;;;;;;11.43;5.93;;;;;;;-141.50;100.00;63355.56;4920720;29;20083;-82
2021/12/19 12:18:40;;;;;;;10.73;5.38;;;;;;;-141.50;100.00;63355.56;4927661;29;20139;-80